CEE2 weather

Elephant Enterprises Inc. Heliport
Calgary, Alberta, Canada

Public forecast

Using degrees Celsius for public forecast. Weather courtesy of forecast.io.

Closest aviation weather report (METAR) to Elephant Enterprises Inc. Heliport

Closest report is Calgary / Springbank Airport, 3.0 nm (5.6 km) WSW. Retrieved 2019/12/15 20:00 UTC (38 minutes ago):

CYBW 152000Z AUTO 32004KT 9SM CLR M13/M15 A2977 RMK SLP172

Closest aviation forecast (TAF) to Elephant Enterprises Inc. Heliport

Closest forecast is Calgary / Springbank Airport, 3.0 nm (5.6 km) WSW. Retrieved 2019/12/15 18:00 UTC (3 hours ago):

TAF CYBW 151738Z 1518/1605 31008KT P6SM FEW080 BECMG 1600/1602 31012KT RMK FCST BASED ON AUTO OBS NXT FCST BY 160000Z